createdAt,value
2018-12-25T00:06:27.265Z,9.77
2018-12-25T00:13:10.685Z,10.40
2018-12-25T00:19:54.101Z,9.10
2018-12-25T00:26:37.525Z,9.40
2018-12-25T00:33:20.969Z,9.00
2018-12-25T00:40:04.629Z,10.43
2018-12-25T00:46:48.077Z,12.03
2018-12-25T00:53:31.517Z,11.60
2018-12-25T01:00:14.936Z,11.30
2018-12-25T01:06:58.392Z,13.10
2018-12-25T01:13:41.817Z,10.73
2018-12-25T01:20:25.266Z,14.40
2018-12-25T01:27:08.681Z,13.63
2018-12-25T01:33:52.108Z,14.97
2018-12-25T01:40:35.567Z,15.30
2018-12-25T01:47:18.982Z,16.50
2018-12-25T01:54:02.425Z,17.13
2018-12-25T02:00:45.861Z,18.63
2018-12-25T02:07:29.289Z,15.30
2018-12-25T02:14:12.701Z,15.20
2018-12-25T02:20:56.146Z,12.40
2018-12-25T02:27:39.577Z,14.07
2018-12-25T02:34:23.015Z,16.57
2018-12-25T02:41:06.446Z,14.63
2018-12-25T02:47:49.870Z,17.73
2018-12-25T02:54:33.305Z,14.87
2018-12-25T03:01:16.726Z,14.37
2018-12-25T03:08:00.142Z,13.13
2018-12-25T03:14:43.607Z,14.40
2018-12-25T03:21:27.070Z,16.33
2018-12-25T03:28:10.503Z,17.30
2018-12-25T03:34:53.928Z,12.73
2018-12-25T03:41:37.351Z,14.80
2018-12-25T03:48:20.785Z,13.47
2018-12-25T03:55:04.214Z,14.77
2018-12-25T04:01:47.650Z,15.47
2018-12-25T04:08:31.072Z,16.10
2018-12-25T04:15:14.518Z,16.03
2018-12-25T04:21:57.977Z,17.17
2018-12-25T04:28:41.411Z,18.90
2018-12-25T04:35:24.846Z,17.50
2018-12-25T04:42:08.272Z,24.93
2018-12-25T04:48:51.710Z,30.10
2018-12-25T04:55:35.158Z,22.10
2018-12-25T05:02:18.589Z,29.60
2018-12-25T05:09:02.045Z,27.03
2018-12-25T05:15:45.474Z,23.83
2018-12-25T05:22:28.901Z,24.97
2018-12-25T05:29:12.338Z,29.17
2018-12-25T05:35:55.878Z,25.50
2018-12-25T05:42:39.321Z,26.30
2018-12-25T05:49:22.789Z,24.37
2018-12-25T05:56:06.221Z,26.20
2018-12-25T06:02:49.658Z,30.17
2018-12-25T06:09:33.093Z,22.10
2018-12-25T06:16:16.537Z,28.77
2018-12-25T06:23:00.009Z,28.73
2018-12-25T06:29:43.433Z,27.77
2018-12-25T06:36:26.877Z,24.87
2018-12-25T06:43:10.292Z,24.57
2018-12-25T06:49:53.715Z,20.93
2018-12-25T06:56:37.190Z,22.13
2018-12-25T07:03:20.617Z,20.13
2018-12-25T07:10:04.240Z,27.03
2018-12-25T07:16:47.729Z,22.37
2018-12-25T07:23:31.182Z,42.88
2018-12-25T07:30:14.640Z,26.90
2018-12-25T07:36:58.073Z,29.17
2018-12-25T07:43:41.518Z,51.47
2018-12-25T07:50:24.948Z,42.03
2018-12-25T07:57:08.365Z,61.00
2018-12-25T08:03:51.788Z,41.23
2018-12-25T08:10:35.256Z,39.50
2018-12-25T08:17:18.682Z,42.70
2018-12-25T08:24:02.121Z,31.97
2018-12-25T08:30:45.562Z,33.50
2018-12-25T08:37:29.017Z,25.03
2018-12-25T08:44:12.445Z,30.27
2018-12-25T08:50:55.873Z,25.20
2018-12-25T08:57:39.293Z,36.30
2018-12-25T09:04:22.713Z,26.00
2018-12-25T09:11:06.177Z,32.83
2018-12-25T09:17:49.748Z,24.80
2018-12-25T09:24:33.309Z,20.57
2018-12-25T09:31:17.026Z,21.00
2018-12-25T09:38:00.486Z,21.90
2018-12-25T09:44:43.901Z,20.13
2018-12-25T09:51:27.375Z,22.97
2018-12-25T09:58:10.777Z,20.80
2018-12-25T10:04:54.212Z,21.10
2018-12-25T10:11:44.312Z,22.93
2018-12-25T10:18:21.109Z,21.27
2018-12-25T10:25:04.523Z,16.57
2018-12-25T10:31:48.082Z,19.00
2018-12-25T10:38:31.506Z,21.53
2018-12-25T10:45:14.921Z,20.20
2018-12-25T10:51:58.337Z,20.03
2018-12-25T10:58:41.769Z,18.77
2018-12-25T11:05:25.185Z,19.97
2018-12-25T11:12:08.634Z,16.63
2018-12-25T11:18:52.062Z,19.63
2018-12-25T11:25:35.501Z,17.77
2018-12-25T11:32:19.066Z,17.93
2018-12-25T11:39:02.537Z,20.30
2018-12-25T11:45:45.954Z,17.13
2018-12-25T11:52:29.377Z,14.67
2018-12-25T11:59:12.793Z,14.80
2018-12-25T12:05:56.211Z,15.73
2018-12-25T12:12:41.882Z,15.17
2018-12-25T12:19:25.294Z,16.57
2018-12-25T12:26:08.729Z,17.40
2018-12-25T12:32:52.273Z,15.13
2018-12-25T12:39:35.686Z,16.37
2018-12-25T12:46:19.118Z,18.00
2018-12-25T12:53:02.553Z,21.07
2018-12-25T12:59:45.969Z,18.60
2018-12-25T13:06:29.385Z,18.47
2018-12-25T13:13:12.801Z,15.63
2018-12-25T13:19:56.222Z,14.70
2018-12-25T13:26:39.641Z,16.80
2018-12-25T13:33:23.282Z,17.07
2018-12-25T13:40:06.753Z,15.53
2018-12-25T13:46:51.666Z,14.73
2018-12-25T13:53:33.616Z,14.87
2018-12-25T14:00:17.026Z,14.83
2018-12-25T14:07:00.441Z,14.33
2018-12-25T14:13:43.873Z,15.05
2018-12-25T14:20:27.288Z,13.30
2018-12-25T14:27:10.725Z,15.27
2018-12-25T14:33:54.269Z,15.13
2018-12-25T14:40:37.896Z,16.83
2018-12-25T14:47:21.315Z,16.03
2018-12-25T14:54:04.753Z,14.30
2018-12-25T15:00:48.226Z,16.63
2018-12-25T15:07:31.645Z,19.13
2018-12-25T15:14:15.051Z,18.20
2018-12-25T15:20:58.461Z,22.20
2018-12-25T15:27:41.873Z,18.37
2018-12-25T15:34:25.410Z,17.07
2018-12-25T15:41:08.828Z,20.93
2018-12-25T15:47:52.237Z,20.83
2018-12-25T15:54:35.670Z,25.00
2018-12-25T16:01:19.330Z,23.57
2018-12-25T16:08:02.745Z,21.67
2018-12-25T16:14:46.189Z,18.83
2018-12-25T16:21:29.616Z,21.57
2018-12-25T16:28:13.045Z,23.97
2018-12-25T16:34:56.677Z,27.83
2018-12-25T16:41:40.118Z,26.17
2018-12-25T16:48:23.557Z,23.93
2018-12-25T16:55:07.001Z,26.77
2018-12-25T17:01:50.425Z,27.00
2018-12-25T17:08:33.851Z,24.67
2018-12-25T17:15:17.275Z,26.53
2018-12-25T17:22:00.701Z,30.93
2018-12-25T17:28:44.122Z,33.10
2018-12-25T17:35:27.681Z,28.77
2018-12-25T17:42:11.117Z,30.10
2018-12-25T17:48:54.545Z,30.50
2018-12-25T17:55:37.981Z,29.63
2018-12-25T18:02:21.440Z,27.20
2018-12-25T18:09:06.185Z,24.63
2018-12-25T18:15:49.608Z,25.63
2018-12-25T18:22:33.025Z,29.93
2018-12-25T18:29:16.445Z,30.60
2018-12-25T18:36:00.001Z,37.67
2018-12-25T18:42:43.410Z,30.70
2018-12-25T18:49:26.834Z,32.57
2018-12-25T18:56:10.299Z,32.80
2018-12-25T19:02:53.718Z,32.70
2018-12-25T19:09:37.124Z,31.23
2018-12-25T19:16:20.549Z,32.73
2018-12-25T19:23:03.965Z,30.20
2018-12-25T19:29:47.373Z,32.30
2018-12-25T19:36:31.006Z,31.30
2018-12-25T19:43:14.418Z,29.97
2018-12-25T19:49:57.837Z,26.37
2018-12-25T19:56:41.264Z,32.67
2018-12-25T20:03:31.444Z,31.17
2018-12-25T20:10:36.406Z,31.03
2018-12-25T20:17:41.101Z,29.30
2018-12-25T20:26:37.769Z,27.73
2018-12-25T20:34:28.129Z,26.13
2018-12-25T20:41:58.405Z,23.40
2018-12-25T20:48:53.958Z,25.50
2018-12-25T20:56:46.446Z,25.93
2018-12-25T21:04:40.046Z,22.80
2018-12-25T21:12:04.475Z,32.27
2018-12-25T21:20:02.197Z,28.40
2018-12-25T21:26:56.758Z,33.03
2018-12-25T21:33:40.965Z,30.10
2018-12-25T21:40:25.155Z,30.70
2018-12-25T21:47:08.752Z,28.17
2018-12-25T21:53:53.198Z,31.67
2018-12-25T22:00:37.709Z,28.03
2018-12-25T22:07:21.126Z,30.63
2018-12-25T22:14:05.176Z,26.00
2018-12-25T22:20:48.590Z,33.93
2018-12-25T22:27:32.006Z,30.90
2018-12-25T22:34:21.488Z,29.00
2018-12-25T22:41:05.627Z,27.93
2018-12-25T22:47:50.121Z,23.93
2018-12-25T22:54:34.571Z,23.23
2018-12-25T23:01:19.204Z,22.87
2018-12-25T23:08:02.621Z,25.63
2018-12-25T23:14:46.041Z,21.87
2018-12-25T23:21:30.017Z,26.30
2018-12-25T23:28:13.447Z,25.63
2018-12-25T23:34:57.522Z,24.00
2018-12-25T23:41:41.688Z,25.53
2018-12-25T23:48:26.113Z,22.27
2018-12-25T23:55:09.546Z,25.63
